sensor_id;sensor_type;location;lat;lon;timestamp;temperature;humidity
28654;DHT22;24320;56.980;24.336;2023-05-29T00:00:48;7.20;99.90
28654;DHT22;24320;56.980;24.336;2023-05-29T00:03:15;7.10;99.90
28654;DHT22;24320;56.980;24.336;2023-05-29T00:05:44;7.10;99.90
28654;DHT22;24320;56.980;24.336;2023-05-29T00:08:12;7.00;99.90
28654;DHT22;24320;56.980;24.336;2023-05-29T00:10:39;7.00;99.90
28654;DHT22;24320;56.980;24.336;2023-05-29T00:13:07;7.00;99.90
28654;DHT22;24320;56.980;24.336;2023-05-29T00:15:34;6.90;99.90
28654;DHT22;24320;56.980;24.336;2023-05-29T00:18:01;6.90;99.90
28654;DHT22;24320;56.980;24.336;2023-05-29T00:20:28;6.90;99.90
28654;DHT22;24320;56.980;24.336;2023-05-29T00:22:56;6.80;99.90
28654;DHT22;24320;56.980;24.336;2023-05-29T00:25:23;6.80;99.90
28654;DHT22;24320;56.980;24.336;2023-05-29T00:27:50;6.80;99.90
28654;DHT22;24320;56.980;24.336;2023-05-29T00:30:17;6.80;99.90
28654;DHT22;24320;56.980;24.336;2023-05-29T00:32:44;6.70;99.90
28654;DHT22;24320;56.980;24.336;2023-05-29T00:35:12;6.70;99.90
28654;DHT22;24320;56.980;24.336;2023-05-29T00:37:39;6.60;99.90
28654;DHT22;24320;56.980;24.336;2023-05-29T00:40:07;6.60;99.90
28654;DHT22;24320;56.980;24.336;2023-05-29T00:42:34;6.50;99.90
28654;DHT22;24320;56.980;24.336;2023-05-29T00:45:02;6.40;99.90
28654;DHT22;24320;56.980;24.336;2023-05-29T00:47:29;6.40;99.90
28654;DHT22;24320;56.980;24.336;2023-05-29T00:49:56;6.30;99.90
28654;DHT22;24320;56.980;24.336;2023-05-29T00:52:24;6.30;99.90
28654;DHT22;24320;56.980;24.336;2023-05-29T00:54:54;6.30;99.90
28654;DHT22;24320;56.980;24.336;2023-05-29T00:57:22;6.20;99.90
28654;DHT22;24320;56.980;24.336;2023-05-29T00:59:50;6.20;99.90
28654;DHT22;24320;56.980;24.336;2023-05-29T01:02:18;6.10;99.90
28654;DHT22;24320;56.980;24.336;2023-05-29T01:04:47;6.10;99.90
28654;DHT22;24320;56.980;24.336;2023-05-29T01:07:15;6.00;99.90
28654;DHT22;24320;56.980;24.336;2023-05-29T01:09:42;6.00;99.90
28654;DHT22;24320;56.980;24.336;2023-05-29T01:12:41;6.00;99.90
28654;DHT22;24320;56.980;24.336;2023-05-29T01:21:00;5.90;99.90
28654;DHT22;24320;56.980;24.336;2023-05-29T01:23:53;5.90;99.90
28654;DHT22;24320;56.980;24.336;2023-05-29T01:27:05;5.80;99.90
28654;DHT22;24320;56.980;24.336;2023-05-29T01:29:34;5.80;99.90
28654;DHT22;24320;56.980;24.336;2023-05-29T01:32:01;5.80;99.90
28654;DHT22;24320;56.980;24.336;2023-05-29T01:34:29;5.80;99.90
28654;DHT22;24320;56.980;24.336;2023-05-29T01:36:56;5.70;99.90
28654;DHT22;24320;56.980;24.336;2023-05-29T01:39:24;5.70;99.90
28654;DHT22;24320;56.980;24.336;2023-05-29T01:41:52;5.70;99.90
28654;DHT22;24320;56.980;24.336;2023-05-29T01:44:21;5.70;99.90
28654;DHT22;24320;56.980;24.336;2023-05-29T01:46:49;5.60;99.90
28654;DHT22;24320;56.980;24.336;2023-05-29T01:49:16;5.50;99.90
28654;DHT22;24320;56.980;24.336;2023-05-29T01:51:44;5.50;99.90
28654;DHT22;24320;56.980;24.336;2023-05-29T01:54:11;5.40;99.90
28654;DHT22;24320;56.980;24.336;2023-05-29T01:56:38;5.40;99.90
28654;DHT22;24320;56.980;24.336;2023-05-29T01:59:06;5.40;99.90
28654;DHT22;24320;56.980;24.336;2023-05-29T02:01:33;5.40;99.90
28654;DHT22;24320;56.980;24.336;2023-05-29T02:04:00;5.40;99.90
28654;DHT22;24320;56.980;24.336;2023-05-29T02:06:27;5.40;99.90
28654;DHT22;24320;56.980;24.336;2023-05-29T02:08:54;5.40;99.90
28654;DHT22;24320;56.980;24.336;2023-05-29T02:11:22;5.40;99.90
28654;DHT22;24320;56.980;24.336;2023-05-29T02:13:49;5.40;99.90
28654;DHT22;24320;56.980;24.336;2023-05-29T02:16:16;5.40;99.90
28654;DHT22;24320;56.980;24.336;2023-05-29T02:18:44;5.50;99.90
28654;DHT22;24320;56.980;24.336;2023-05-29T02:21:11;5.50;99.90
28654;DHT22;24320;56.980;24.336;2023-05-29T02:23:39;5.60;99.90
28654;DHT22;24320;56.980;24.336;2023-05-29T02:26:06;5.60;99.90
28654;DHT22;24320;56.980;24.336;2023-05-29T02:28:34;5.70;99.90
28654;DHT22;24320;56.980;24.336;2023-05-29T02:31:02;5.80;99.90
28654;DHT22;24320;56.980;24.336;2023-05-29T02:33:29;5.80;99.90
28654;DHT22;24320;56.980;24.336;2023-05-29T02:35:56;5.90;99.90
28654;DHT22;24320;56.980;24.336;2023-05-29T02:38:23;6.00;99.90
28654;DHT22;24320;56.980;24.336;2023-05-29T02:40:50;6.10;99.90
28654;DHT22;24320;56.980;24.336;2023-05-29T02:43:26;6.20;99.90
28654;DHT22;24320;56.980;24.336;2023-05-29T02:46:02;6.60;99.90
28654;DHT22;24320;56.980;24.336;2023-05-29T02:48:29;7.00;99.90
28654;DHT22;24320;56.980;24.336;2023-05-29T02:50:56;7.30;99.90
28654;DHT22;24320;56.980;24.336;2023-05-29T02:53:23;7.50;99.90
28654;DHT22;24320;56.980;24.336;2023-05-29T02:55:50;7.70;99.90
28654;DHT22;24320;56.980;24.336;2023-05-29T02:58:18;7.80;99.90
28654;DHT22;24320;56.980;24.336;2023-05-29T03:00:45;8.20;99.90
28654;DHT22;24320;56.980;24.336;2023-05-29T03:03:12;8.80;99.90
28654;DHT22;24320;56.980;24.336;2023-05-29T03:05:39;9.70;99.90
28654;DHT22;24320;56.980;24.336;2023-05-29T03:08:06;10.70;99.90
28654;DHT22;24320;56.980;24.336;2023-05-29T03:10:33;11.70;99.90
28654;DHT22;24320;56.980;24.336;2023-05-29T03:13:00;12.60;99.90
28654;DHT22;24320;56.980;24.336;2023-05-29T03:15:28;13.20;99.90
28654;DHT22;24320;56.980;24.336;2023-05-29T03:17:55;13.90;99.90
28654;DHT22;24320;56.980;24.336;2023-05-29T03:20:22;14.80;99.90
28654;DHT22;24320;56.980;24.336;2023-05-29T03:22:50;15.70;99.90
28654;DHT22;24320;56.980;24.336;2023-05-29T03:25:21;16.30;99.90
28654;DHT22;24320;56.980;24.336;2023-05-29T03:27:48;16.80;99.90
28654;DHT22;24320;56.980;24.336;2023-05-29T03:30:15;17.10;99.90
28654;DHT22;24320;56.980;24.336;2023-05-29T03:32:42;17.30;99.90
28654;DHT22;24320;56.980;24.336;2023-05-29T03:35:09;17.60;99.90
28654;DHT22;24320;56.980;24.336;2023-05-29T03:37:37;17.70;99.90
28654;DHT22;24320;56.980;24.336;2023-05-29T03:40:04;18.00;99.30
28654;DHT22;24320;56.980;24.336;2023-05-29T03:42:31;18.20;98.40
28654;DHT22;24320;56.980;24.336;2023-05-29T03:44:58;18.40;97.80
28654;DHT22;24320;56.980;24.336;2023-05-29T03:47:26;18.60;96.40
28654;DHT22;24320;56.980;24.336;2023-05-29T03:49:53;18.70;95.00
28654;DHT22;24320;56.980;24.336;2023-05-29T03:52:20;18.70;95.40
28654;DHT22;24320;56.980;24.336;2023-05-29T03:54:47;18.80;95.20
28654;DHT22;24320;56.980;24.336;2023-05-29T03:57:14;19.10;94.10
28654;DHT22;24320;56.980;24.336;2023-05-29T03:59:41;19.10;93.40
28654;DHT22;24320;56.980;24.336;2023-05-29T04:02:08;19.20;92.50
28654;DHT22;24320;56.980;24.336;2023-05-29T04:04:37;19.20;92.50
28654;DHT22;24320;56.980;24.336;2023-05-29T04:07:06;19.20;92.40
28654;DHT22;24320;56.980;24.336;2023-05-29T04:09:33;19.40;91.90
28654;DHT22;24320;56.980;24.336;2023-05-29T04:12:01;19.60;91.10
28654;DHT22;24320;56.980;24.336;2023-05-29T04:14:32;19.80;91.00
28654;DHT22;24320;56.980;24.336;2023-05-29T04:16:59;20.00;90.20
28654;DHT22;24320;56.980;24.336;2023-05-29T04:19:26;20.10;86.10
28654;DHT22;24320;56.980;24.336;2023-05-29T04:21:53;20.20;87.80
28654;DHT22;24320;56.980;24.336;2023-05-29T04:24:20;20.30;88.90
28654;DHT22;24320;56.980;24.336;2023-05-29T04:26:47;20.30;86.00
28654;DHT22;24320;56.980;24.336;2023-05-29T04:29:14;20.20;87.30
28654;DHT22;24320;56.980;24.336;2023-05-29T04:31:41;20.30;87.00
28654;DHT22;24320;56.980;24.336;2023-05-29T04:34:08;20.40;86.30
28654;DHT22;24320;56.980;24.336;2023-05-29T04:36:37;20.60;86.10
28654;DHT22;24320;56.980;24.336;2023-05-29T04:39:07;20.90;85.70
28654;DHT22;24320;56.980;24.336;2023-05-29T04:41:35;20.80;84.00
28654;DHT22;24320;56.980;24.336;2023-05-29T04:44:02;21.00;81.20
28654;DHT22;24320;56.980;24.336;2023-05-29T04:46:30;20.90;80.20
28654;DHT22;24320;56.980;24.336;2023-05-29T04:48:57;20.80;79.40
28654;DHT22;24320;56.980;24.336;2023-05-29T04:51:25;20.90;79.00
28654;DHT22;24320;56.980;24.336;2023-05-29T04:53:52;20.80;81.00
28654;DHT22;24320;56.980;24.336;2023-05-29T04:56:19;20.80;79.50
28654;DHT22;24320;56.980;24.336;2023-05-29T04:58:47;20.90;79.90
28654;DHT22;24320;56.980;24.336;2023-05-29T05:01:14;21.20;77.50
28654;DHT22;24320;56.980;24.336;2023-05-29T05:03:41;21.20;76.50
28654;DHT22;24320;56.980;24.336;2023-05-29T05:06:09;21.10;76.20
28654;DHT22;24320;56.980;24.336;2023-05-29T05:08:36;21.10;77.00
28654;DHT22;24320;56.980;24.336;2023-05-29T05:11:04;21.20;78.50
28654;DHT22;24320;56.980;24.336;2023-05-29T05:13:33;21.40;78.40
28654;DHT22;24320;56.980;24.336;2023-05-29T05:16:00;21.60;77.00
28654;DHT22;24320;56.980;24.336;2023-05-29T05:18:28;21.80;75.10
28654;DHT22;24320;56.980;24.336;2023-05-29T05:20:55;22.00;73.10
28654;DHT22;24320;56.980;24.336;2023-05-29T05:23:22;22.10;74.20
28654;DHT22;24320;56.980;24.336;2023-05-29T05:25:49;22.30;72.60
28654;DHT22;24320;56.980;24.336;2023-05-29T05:28:16;22.40;73.10
28654;DHT22;24320;56.980;24.336;2023-05-29T05:30:43;22.50;74.30
28654;DHT22;24320;56.980;24.336;2023-05-29T05:33:10;22.70;72.60
28654;DHT22;24320;56.980;24.336;2023-05-29T05:35:38;22.90;71.00
28654;DHT22;24320;56.980;24.336;2023-05-29T05:38:05;23.10;71.50
28654;DHT22;24320;56.980;24.336;2023-05-29T05:40:32;23.40;71.10
28654;DHT22;24320;56.980;24.336;2023-05-29T05:42:59;23.70;68.60
28654;DHT22;24320;56.980;24.336;2023-05-29T05:45:26;24.00;69.60
28654;DHT22;24320;56.980;24.336;2023-05-29T05:47:54;24.20;69.10
28654;DHT22;24320;56.980;24.336;2023-05-29T05:50:22;24.40;65.90
28654;DHT22;24320;56.980;24.336;2023-05-29T05:52:49;24.30;66.30
28654;DHT22;24320;56.980;24.336;2023-05-29T05:55:16;24.20;65.50
28654;DHT22;24320;56.980;24.336;2023-05-29T05:57:43;23.90;68.20
28654;DHT22;24320;56.980;24.336;2023-05-29T06:00:11;24.10;67.00
28654;DHT22;24320;56.980;24.336;2023-05-29T06:02:39;24.00;66.60
28654;DHT22;24320;56.980;24.336;2023-05-29T06:05:09;23.80;66.40
28654;DHT22;24320;56.980;24.336;2023-05-29T06:07:38;23.60;69.50
28654;DHT22;24320;56.980;24.336;2023-05-29T06:10:05;23.60;67.00
28654;DHT22;24320;56.980;24.336;2023-05-29T06:12:33;23.70;67.60
28654;DHT22;24320;56.980;24.336;2023-05-29T06:15:01;23.70;67.00
28654;DHT22;24320;56.980;24.336;2023-05-29T06:17:30;23.60;66.90
28654;DHT22;24320;56.980;24.336;2023-05-29T06:19:57;23.40;67.10
28654;DHT22;24320;56.980;24.336;2023-05-29T06:22:24;23.20;68.00
28654;DHT22;24320;56.980;24.336;2023-05-29T06:24:51;23.30;68.10
28654;DHT22;24320;56.980;24.336;2023-05-29T06:27:18;23.30;69.20
28654;DHT22;24320;56.980;24.336;2023-05-29T06:29:46;23.30;67.70
28654;DHT22;24320;56.980;24.336;2023-05-29T06:32:13;23.30;69.80
28654;DHT22;24320;56.980;24.336;2023-05-29T06:34:40;23.40;67.10
28654;DHT22;24320;56.980;24.336;2023-05-29T06:37:07;23.20;66.30
28654;DHT22;24320;56.980;24.336;2023-05-29T06:39:35;22.90;66.30
28654;DHT22;24320;56.980;24.336;2023-05-29T06:42:02;22.80;66.20
28654;DHT22;24320;56.980;24.336;2023-05-29T06:44:30;22.60;67.60
28654;DHT22;24320;56.980;24.336;2023-05-29T06:46:57;22.60;67.00
28654;DHT22;24320;56.980;24.336;2023-05-29T06:49:24;22.40;67.60
28654;DHT22;24320;56.980;24.336;2023-05-29T06:51:51;22.40;67.50
28654;DHT22;24320;56.980;24.336;2023-05-29T06:54:18;22.60;68.80
28654;DHT22;24320;56.980;24.336;2023-05-29T06:56:45;22.90;66.10
28654;DHT22;24320;56.980;24.336;2023-05-29T06:59:27;23.00;65.10
28654;DHT22;24320;56.980;24.336;2023-05-29T07:01:56;23.10;68.30
28654;DHT22;24320;56.980;24.336;2023-05-29T07:04:23;23.30;68.40
28654;DHT22;24320;56.980;24.336;2023-05-29T07:06:50;23.40;69.10
28654;DHT22;24320;56.980;24.336;2023-05-29T07:09:18;23.60;68.00
28654;DHT22;24320;56.980;24.336;2023-05-29T07:11:45;23.90;70.00
28654;DHT22;24320;56.980;24.336;2023-05-29T07:14:12;24.20;67.60
28654;DHT22;24320;56.980;24.336;2023-05-29T07:16:39;24.10;68.10
28654;DHT22;24320;56.980;24.336;2023-05-29T07:19:06;24.20;68.00
28654;DHT22;24320;56.980;24.336;2023-05-29T07:21:45;24.30;68.10
28654;DHT22;24320;56.980;24.336;2023-05-29T07:24:12;24.30;65.60
28654;DHT22;24320;56.980;24.336;2023-05-29T07:26:39;24.50;67.80
28654;DHT22;24320;56.980;24.336;2023-05-29T07:29:06;24.50;64.90
28654;DHT22;24320;56.980;24.336;2023-05-29T07:31:33;24.50;65.60
28654;DHT22;24320;56.980;24.336;2023-05-29T07:34:02;24.70;66.50
28654;DHT22;24320;56.980;24.336;2023-05-29T07:36:30;24.70;68.10
28654;DHT22;24320;56.980;24.336;2023-05-29T07:39:00;24.80;67.60
28654;DHT22;24320;56.980;24.336;2023-05-29T07:41:27;24.90;63.50
28654;DHT22;24320;56.980;24.336;2023-05-29T07:43:54;24.60;65.00
28654;DHT22;24320;56.980;24.336;2023-05-29T07:46:28;24.10;64.00
28654;DHT22;24320;56.980;24.336;2023-05-29T07:48:56;23.40;65.80
28654;DHT22;24320;56.980;24.336;2023-05-29T07:51:23;22.70;67.50
28654;DHT22;24320;56.980;24.336;2023-05-29T07:53:52;22.20;69.20
28654;DHT22;24320;56.980;24.336;2023-05-29T07:56:20;21.80;70.70
28654;DHT22;24320;56.980;24.336;2023-05-29T07:58:48;21.70;71.90
28654;DHT22;24320;56.980;24.336;2023-05-29T08:01:15;21.80;71.80
28654;DHT22;24320;56.980;24.336;2023-05-29T08:03:42;22.10;70.30
28654;DHT22;24320;56.980;24.336;2023-05-29T08:06:10;22.00;70.50
28654;DHT22;24320;56.980;24.336;2023-05-29T08:08:37;22.00;69.00
28654;DHT22;24320;56.980;24.336;2023-05-29T08:11:04;22.00;70.10
28654;DHT22;24320;56.980;24.336;2023-05-29T08:13:32;21.70;69.80
28654;DHT22;24320;56.980;24.336;2023-05-29T08:15:59;21.50;70.00
28654;DHT22;24320;56.980;24.336;2023-05-29T08:18:26;21.20;69.80
28654;DHT22;24320;56.980;24.336;2023-05-29T08:20:53;21.00;72.10
28654;DHT22;24320;56.980;24.336;2023-05-29T08:23:23;20.90;71.30
28654;DHT22;24320;56.980;24.336;2023-05-29T08:25:51;20.80;72.50
28654;DHT22;24320;56.980;24.336;2023-05-29T08:28:18;20.70;74.40
28654;DHT22;24320;56.980;24.336;2023-05-29T08:30:45;20.80;74.90
28654;DHT22;24320;56.980;24.336;2023-05-29T08:33:12;20.80;75.40
28654;DHT22;24320;56.980;24.336;2023-05-29T08:35:39;20.90;75.90
28654;DHT22;24320;56.980;24.336;2023-05-29T08:38:06;21.00;75.40
28654;DHT22;24320;56.980;24.336;2023-05-29T08:40:33;21.00;76.00
28654;DHT22;24320;56.980;24.336;2023-05-29T08:43:06;21.10;75.70
28654;DHT22;24320;56.980;24.336;2023-05-29T08:45:40;21.20;77.10
28654;DHT22;24320;56.980;24.336;2023-05-29T08:48:10;21.50;76.60
28654;DHT22;24320;56.980;24.336;2023-05-29T08:50:45;21.70;76.40
28654;DHT22;24320;56.980;24.336;2023-05-29T08:53:15;21.90;74.40
28654;DHT22;24320;56.980;24.336;2023-05-29T08:55:43;22.00;74.00
28654;DHT22;24320;56.980;24.336;2023-05-29T08:58:11;22.00;73.00
28654;DHT22;24320;56.980;24.336;2023-05-29T09:00:38;21.80;72.20
28654;DHT22;24320;56.980;24.336;2023-05-29T09:03:07;21.30;71.20
28654;DHT22;24320;56.980;24.336;2023-05-29T09:05:35;20.80;75.80
28654;DHT22;24320;56.980;24.336;2023-05-29T09:08:10;20.50;74.20
28654;DHT22;24320;56.980;24.336;2023-05-29T09:10:43;20.30;75.00
28654;DHT22;24320;56.980;24.336;2023-05-29T09:13:11;20.10;76.30
28654;DHT22;24320;56.980;24.336;2023-05-29T09:15:41;20.00;77.00
28654;DHT22;24320;56.980;24.336;2023-05-29T09:18:11;20.00;77.40
28654;DHT22;24320;56.980;24.336;2023-05-29T09:20:38;20.10;77.90
28654;DHT22;24320;56.980;24.336;2023-05-29T09:23:07;20.40;81.50
28654;DHT22;24320;56.980;24.336;2023-05-29T09:25:41;20.80;75.60
28654;DHT22;24320;56.980;24.336;2023-05-29T09:28:11;21.10;77.80
28654;DHT22;24320;56.980;24.336;2023-05-29T09:30:40;21.40;75.30
28654;DHT22;24320;56.980;24.336;2023-05-29T09:33:09;21.70;75.00
28654;DHT22;24320;56.980;24.336;2023-05-29T09:38:14;21.80;69.50
28654;DHT22;24320;56.980;24.336;2023-05-29T09:40:47;21.70;70.00
28654;DHT22;24320;56.980;24.336;2023-05-29T09:43:18;21.70;70.30
28654;DHT22;24320;56.980;24.336;2023-05-29T09:45:47;21.90;71.30
28654;DHT22;24320;56.980;24.336;2023-05-29T09:48:17;22.00;72.50
28654;DHT22;24320;56.980;24.336;2023-05-29T09:50:45;22.20;74.00
28654;DHT22;24320;56.980;24.336;2023-05-29T09:53:18;22.40;67.60
28654;DHT22;24320;56.980;24.336;2023-05-29T09:55:47;22.40;67.30
28654;DHT22;24320;56.980;24.336;2023-05-29T09:58:15;22.40;70.80
28654;DHT22;24320;56.980;24.336;2023-05-29T10:00:42;22.60;70.20
28654;DHT22;24320;56.980;24.336;2023-05-29T10:03:10;22.80;70.00
28654;DHT22;24320;56.980;24.336;2023-05-29T10:05:40;23.00;68.90
28654;DHT22;24320;56.980;24.336;2023-05-29T10:08:12;23.00;69.60
28654;DHT22;24320;56.980;24.336;2023-05-29T10:10:49;23.20;67.10
28654;DHT22;24320;56.980;24.336;2023-05-29T10:13:22;23.40;66.60
28654;DHT22;24320;56.980;24.336;2023-05-29T10:15:52;23.40;60.80
28654;DHT22;24320;56.980;24.336;2023-05-29T10:18:26;23.10;62.80
28654;DHT22;24320;56.980;24.336;2023-05-29T10:20:56;22.90;64.00
28654;DHT22;24320;56.980;24.336;2023-05-29T10:23:26;22.90;63.20
28654;DHT22;24320;56.980;24.336;2023-05-29T10:25:58;22.90;60.50
28654;DHT22;24320;56.980;24.336;2023-05-29T10:28:31;22.70;60.00
28654;DHT22;24320;56.980;24.336;2023-05-29T10:31:08;22.60;64.60
28654;DHT22;24320;56.980;24.336;2023-05-29T10:38:41;22.20;63.60
28654;DHT22;24320;56.980;24.336;2023-05-29T10:43:55;22.20;63.60
28654;DHT22;24320;56.980;24.336;2023-05-29T10:49:16;22.40;62.20
28654;DHT22;24320;56.980;24.336;2023-05-29T10:51:43;22.50;58.50
28654;DHT22;24320;56.980;24.336;2023-05-29T10:54:11;22.70;60.00
28654;DHT22;24320;56.980;24.336;2023-05-29T10:56:40;22.90;59.40
28654;DHT22;24320;56.980;24.336;2023-05-29T10:59:10;22.90;57.00
28654;DHT22;24320;56.980;24.336;2023-05-29T11:01:40;22.70;57.60
28654;DHT22;24320;56.980;24.336;2023-05-29T11:06:47;22.60;60.40
28654;DHT22;24320;56.980;24.336;2023-05-29T11:09:35;22.50;57.70
28654;DHT22;24320;56.980;24.336;2023-05-29T11:12:24;22.30;59.90
28654;DHT22;24320;56.980;24.336;2023-05-29T11:15:08;22.20;55.80
28654;DHT22;24320;56.980;24.336;2023-05-29T11:20:16;22.00;57.90
28654;DHT22;24320;56.980;24.336;2023-05-29T11:23:02;22.20;54.20
28654;DHT22;24320;56.980;24.336;2023-05-29T11:25:33;22.30;56.20
28654;DHT22;24320;56.980;24.336;2023-05-29T11:28:01;22.30;56.30
28654;DHT22;24320;56.980;24.336;2023-05-29T11:30:31;22.30;55.40
28654;DHT22;24320;56.980;24.336;2023-05-29T11:33:02;22.20;56.10
28654;DHT22;24320;56.980;24.336;2023-05-29T11:35:33;22.20;58.70
28654;DHT22;24320;56.980;24.336;2023-05-29T11:38:03;22.30;59.10
28654;DHT22;24320;56.980;24.336;2023-05-29T11:40:36;22.50;60.20
28654;DHT22;24320;56.980;24.336;2023-05-29T11:43:04;22.60;59.60
28654;DHT22;24320;56.980;24.336;2023-05-29T11:45:33;22.60;57.70
28654;DHT22;24320;56.980;24.336;2023-05-29T11:48:03;22.50;54.70
28654;DHT22;24320;56.980;24.336;2023-05-29T11:50:31;22.30;53.50
28654;DHT22;24320;56.980;24.336;2023-05-29T11:52:59;22.30;57.90
28654;DHT22;24320;56.980;24.336;2023-05-29T11:55:27;22.30;57.50
28654;DHT22;24320;56.980;24.336;2023-05-29T11:57:59;22.30;58.90
28654;DHT22;24320;56.980;24.336;2023-05-29T12:00:31;22.30;57.30
28654;DHT22;24320;56.980;24.336;2023-05-29T12:02:59;22.30;56.10
28654;DHT22;24320;56.980;24.336;2023-05-29T12:05:31;22.30;56.90
28654;DHT22;24320;56.980;24.336;2023-05-29T12:07:59;22.40;54.80
28654;DHT22;24320;56.980;24.336;2023-05-29T12:10:31;22.20;54.40
28654;DHT22;24320;56.980;24.336;2023-05-29T12:12:59;21.90;52.70
28654;DHT22;24320;56.980;24.336;2023-05-29T12:15:28;21.60;54.70
28654;DHT22;24320;56.980;24.336;2023-05-29T12:17:55;21.60;55.40
28654;DHT22;24320;56.980;24.336;2023-05-29T12:20:24;21.60;56.40
28654;DHT22;24320;56.980;24.336;2023-05-29T12:22:54;21.60;54.70
28654;DHT22;24320;56.980;24.336;2023-05-29T12:25:25;21.50;55.40
28654;DHT22;24320;56.980;24.336;2023-05-29T12:27:55;21.30;55.20
28654;DHT22;24320;56.980;24.336;2023-05-29T12:30:23;21.20;55.90
28654;DHT22;24320;56.980;24.336;2023-05-29T12:33:00;21.10;56.60
28654;DHT22;24320;56.980;24.336;2023-05-29T12:35:29;20.90;55.80
28654;DHT22;24320;56.980;24.336;2023-05-29T12:38:05;20.80;57.10
28654;DHT22;24320;56.980;24.336;2023-05-29T12:40:35;21.00;57.00
28654;DHT22;24320;56.980;24.336;2023-05-29T12:43:06;21.20;57.60
28654;DHT22;24320;56.980;24.336;2023-05-29T12:45:34;21.40;55.60
28654;DHT22;24320;56.980;24.336;2023-05-29T12:48:06;21.30;53.90
28654;DHT22;24320;56.980;24.336;2023-05-29T12:50:37;21.20;53.70
28654;DHT22;24320;56.980;24.336;2023-05-29T12:53:11;21.10;53.30
28654;DHT22;24320;56.980;24.336;2023-05-29T12:55:40;20.90;54.30
28654;DHT22;24320;56.980;24.336;2023-05-29T12:58:09;20.90;55.00
28654;DHT22;24320;56.980;24.336;2023-05-29T13:00:38;20.80;54.70
28654;DHT22;24320;56.980;24.336;2023-05-29T13:03:07;20.50;54.30
28654;DHT22;24320;56.980;24.336;2023-05-29T13:05:35;20.20;54.80
28654;DHT22;24320;56.980;24.336;2023-05-29T13:08:02;19.90;55.30
28654;DHT22;24320;56.980;24.336;2023-05-29T13:10:29;19.80;55.40
28654;DHT22;24320;56.980;24.336;2023-05-29T13:12:57;19.80;55.80
28654;DHT22;24320;56.980;24.336;2023-05-29T13:15:26;20.10;59.70
28654;DHT22;24320;56.980;24.336;2023-05-29T13:17:53;20.40;58.20
28654;DHT22;24320;56.980;24.336;2023-05-29T13:20:20;20.60;58.50
28654;DHT22;24320;56.980;24.336;2023-05-29T13:22:48;20.80;58.60
28654;DHT22;24320;56.980;24.336;2023-05-29T13:25:16;21.10;59.80
28654;DHT22;24320;56.980;24.336;2023-05-29T13:27:45;21.20;59.90
28654;DHT22;24320;56.980;24.336;2023-05-29T13:30:14;21.30;59.80
28654;DHT22;24320;56.980;24.336;2023-05-29T13:32:42;21.10;61.10
28654;DHT22;24320;56.980;24.336;2023-05-29T13:35:09;20.80;62.50
28654;DHT22;24320;56.980;24.336;2023-05-29T13:37:37;20.50;62.90
28654;DHT22;24320;56.980;24.336;2023-05-29T13:40:07;20.20;63.80
28654;DHT22;24320;56.980;24.336;2023-05-29T13:42:36;19.80;64.50
28654;DHT22;24320;56.980;24.336;2023-05-29T13:45:06;19.80;65.30
28654;DHT22;24320;56.980;24.336;2023-05-29T13:47:35;19.70;65.40
28654;DHT22;24320;56.980;24.336;2023-05-29T13:50:03;19.70;64.80
28654;DHT22;24320;56.980;24.336;2023-05-29T13:52:31;19.60;64.90
28654;DHT22;24320;56.980;24.336;2023-05-29T13:55:00;19.70;65.10
28654;DHT22;24320;56.980;24.336;2023-05-29T13:57:33;19.70;64.30
28654;DHT22;24320;56.980;24.336;2023-05-29T14:00:01;19.70;64.30
28654;DHT22;24320;56.980;24.336;2023-05-29T14:02:30;19.60;63.80
28654;DHT22;24320;56.980;24.336;2023-05-29T14:04:57;19.50;63.60
28654;DHT22;24320;56.980;24.336;2023-05-29T14:07:24;19.30;64.10
28654;DHT22;24320;56.980;24.336;2023-05-29T14:09:51;19.20;64.50
28654;DHT22;24320;56.980;24.336;2023-05-29T14:12:18;19.30;64.50
28654;DHT22;24320;56.980;24.336;2023-05-29T14:14:46;19.30;64.40
28654;DHT22;24320;56.980;24.336;2023-05-29T14:17:14;19.30;64.10
28654;DHT22;24320;56.980;24.336;2023-05-29T14:19:41;19.20;64.20
28654;DHT22;24320;56.980;24.336;2023-05-29T14:22:09;19.10;65.40
28654;DHT22;24320;56.980;24.336;2023-05-29T14:24:37;19.10;66.10
28654;DHT22;24320;56.980;24.336;2023-05-29T14:27:05;19.20;67.30
28654;DHT22;24320;56.980;24.336;2023-05-29T14:29:32;19.30;67.80
28654;DHT22;24320;56.980;24.336;2023-05-29T14:32:06;19.40;66.40
28654;DHT22;24320;56.980;24.336;2023-05-29T14:34:33;19.50;66.30
28654;DHT22;24320;56.980;24.336;2023-05-29T14:37:00;19.50;64.20
28654;DHT22;24320;56.980;24.336;2023-05-29T14:39:28;19.40;63.60
28654;DHT22;24320;56.980;24.336;2023-05-29T14:41:55;19.30;64.90
28654;DHT22;24320;56.980;24.336;2023-05-29T14:44:22;19.30;65.70
28654;DHT22;24320;56.980;24.336;2023-05-29T14:46:49;19.30;64.90
28654;DHT22;24320;56.980;24.336;2023-05-29T14:49:16;19.40;63.50
28654;DHT22;24320;56.980;24.336;2023-05-29T14:51:43;19.40;63.30
28654;DHT22;24320;56.980;24.336;2023-05-29T14:54:11;19.30;64.30
28654;DHT22;24320;56.980;24.336;2023-05-29T14:56:38;19.20;64.20
28654;DHT22;24320;56.980;24.336;2023-05-29T14:59:05;19.20;64.50
28654;DHT22;24320;56.980;24.336;2023-05-29T15:01:32;19.10;66.50
28654;DHT22;24320;56.980;24.336;2023-05-29T15:03:59;19.00;66.40
28654;DHT22;24320;56.980;24.336;2023-05-29T15:06:30;19.10;66.70
28654;DHT22;24320;56.980;24.336;2023-05-29T15:08:58;19.00;67.00
28654;DHT22;24320;56.980;24.336;2023-05-29T15:11:30;19.00;65.30
28654;DHT22;24320;56.980;24.336;2023-05-29T15:14:00;19.00;66.00
28654;DHT22;24320;56.980;24.336;2023-05-29T15:16:27;19.00;65.20
28654;DHT22;24320;56.980;24.336;2023-05-29T15:18:54;19.00;65.30
28654;DHT22;24320;56.980;24.336;2023-05-29T15:21:22;19.00;66.60
28654;DHT22;24320;56.980;24.336;2023-05-29T15:23:49;19.20;66.20
28654;DHT22;24320;56.980;24.336;2023-05-29T15:26:16;19.30;66.80
28654;DHT22;24320;56.980;24.336;2023-05-29T15:28:43;19.40;66.90
28654;DHT22;24320;56.980;24.336;2023-05-29T15:31:11;19.30;66.90
28654;DHT22;24320;56.980;24.336;2023-05-29T15:33:38;19.30;68.10
28654;DHT22;24320;56.980;24.336;2023-05-29T15:36:06;19.20;69.00
28654;DHT22;24320;56.980;24.336;2023-05-29T15:38:34;19.10;69.10
28654;DHT22;24320;56.980;24.336;2023-05-29T15:41:01;19.00;69.70
28654;DHT22;24320;56.980;24.336;2023-05-29T15:43:29;18.90;70.50
28654;DHT22;24320;56.980;24.336;2023-05-29T15:45:57;18.80;68.90
28654;DHT22;24320;56.980;24.336;2023-05-29T15:48:24;18.50;69.70
28654;DHT22;24320;56.980;24.336;2023-05-29T15:50:52;18.30;69.90
28654;DHT22;24320;56.980;24.336;2023-05-29T15:53:19;18.10;71.70